createdAt,value
2023-01-27T00:00:52.083Z,9.17
2023-01-27T00:05:55.669Z,8.80
2023-01-27T00:11:20.933Z,9.10
2023-01-27T00:16:24.109Z,8.70
2023-01-27T00:21:44.732Z,9.27
2023-01-27T00:26:49.225Z,10.10
2023-01-27T00:32:09.753Z,9.60
2023-01-27T00:37:12.872Z,9.13
2023-01-27T00:42:17.418Z,9.47
2023-01-27T00:47:20.490Z,8.73
2023-01-27T00:52:23.594Z,8.57
2023-01-27T00:57:28.049Z,9.13
2023-01-27T01:02:31.203Z,9.53
2023-01-27T01:07:34.297Z,9.50
2023-01-27T01:12:38.778Z,10.27
2023-01-27T01:17:41.990Z,10.30
2023-01-27T01:22:45.096Z,10.60
2023-01-27T01:27:49.598Z,10.70
2023-01-27T01:32:52.731Z,10.53
2023-01-27T01:37:56.118Z,11.30
2023-01-27T01:43:02.374Z,10.97
2023-01-27T01:48:10.545Z,11.37
2023-01-27T01:53:13.898Z,12.30
2023-01-27T01:58:20.594Z,11.33
2023-01-27T02:03:24.859Z,12.67
2023-01-27T02:08:32.038Z,11.67
2023-01-27T02:13:36.473Z,12.70
2023-01-27T02:18:41.322Z,11.23
2023-01-27T02:23:50.668Z,11.63
2023-01-27T02:28:57.220Z,11.20
2023-01-27T02:34:06.017Z,14.80
2023-01-27T02:39:11.391Z,12.23
2023-01-27T02:44:15.920Z,11.60
2023-01-27T02:49:19.017Z,10.77
2023-01-27T02:54:22.123Z,10.57
2023-01-27T02:59:26.665Z,12.17
2023-01-27T03:04:29.799Z,11.13
2023-01-27T03:09:33.060Z,13.67
2023-01-27T03:14:55.318Z,11.30
2023-01-27T03:19:58.456Z,11.13
2023-01-27T03:25:01.641Z,11.87
2023-01-27T03:30:08.160Z,14.53
2023-01-27T03:35:11.586Z,12.90
2023-01-27T03:40:33.420Z,11.93
2023-01-27T03:45:55.562Z,13.73
2023-01-27T03:50:59.021Z,11.47
2023-01-27T03:56:02.278Z,11.70
2023-01-27T04:01:08.652Z,11.93
2023-01-27T04:06:31.588Z,14.07
2023-01-27T04:11:52.508Z,13.60
2023-01-27T04:17:00.155Z,13.10
2023-01-27T04:22:04.078Z,14.17
2023-01-27T04:27:09.121Z,16.77
2023-01-27T04:32:15.243Z,14.43
2023-01-27T04:37:18.359Z,15.67
2023-01-27T04:42:21.671Z,14.93
2023-01-27T04:47:26.260Z,12.40
2023-01-27T04:52:29.551Z,13.13
2023-01-27T04:57:32.677Z,13.43
2023-01-27T05:02:37.187Z,13.63
2023-01-27T05:07:40.582Z,13.47
2023-01-27T05:12:43.695Z,12.43
2023-01-27T05:17:48.235Z,12.93
2023-01-27T05:23:12.774Z,12.17
2023-01-27T05:28:15.981Z,12.10
2023-01-27T05:33:20.538Z,11.57
2023-01-27T05:38:23.777Z,12.40
2023-01-27T05:43:27.776Z,13.43
2023-01-27T05:48:32.756Z,12.10
2023-01-27T05:53:36.518Z,11.93
2023-01-27T05:58:40.486Z,11.90
2023-01-27T06:03:46.360Z,13.87
2023-01-27T06:08:50.311Z,13.27
2023-01-27T06:13:54.715Z,12.77
2023-01-27T06:18:59.834Z,12.20
2023-01-27T06:24:04.326Z,13.23
2023-01-27T06:29:07.590Z,14.00
2023-01-27T06:34:12.066Z,15.27
2023-01-27T06:39:16.645Z,14.00
2023-01-27T06:44:19.731Z,12.83
2023-01-27T06:49:24.684Z,15.33
2023-01-27T06:54:27.764Z,14.07
2023-01-27T06:59:30.917Z,13.53
2023-01-27T07:04:35.378Z,15.37
2023-01-27T07:09:51.674Z,15.97
2023-01-27T07:14:55.799Z,15.50
2023-01-27T07:20:00.335Z,14.73
2023-01-27T07:25:03.485Z,14.20
2023-01-27T07:30:07.526Z,15.67
2023-01-27T07:35:12.113Z,15.60
2023-01-27T07:40:15.811Z,15.03
2023-01-27T07:45:19.370Z,15.33
2023-01-27T07:50:23.859Z,14.63
2023-01-27T07:55:27.003Z,15.60
2023-01-27T08:00:30.806Z,15.67
2023-01-27T08:05:36.057Z,18.50
2023-01-27T08:10:39.140Z,16.17
2023-01-27T08:15:42.267Z,18.93
2023-01-27T08:20:46.802Z,18.40
2023-01-27T08:25:53.068Z,17.10
2023-01-27T08:30:56.312Z,17.00
2023-01-27T08:36:03.858Z,19.33
2023-01-27T08:41:08.154Z,17.17
2023-01-27T08:46:11.771Z,17.20
2023-01-27T08:51:16.447Z,17.00
2023-01-27T08:56:19.978Z,16.87
2023-01-27T09:01:23.096Z,18.77
2023-01-27T09:06:27.714Z,17.03
2023-01-27T09:11:30.793Z,18.37
2023-01-27T09:16:34.060Z,17.73
2023-01-27T09:21:38.594Z,18.67
2023-01-27T09:26:41.719Z,19.17
2023-01-27T09:31:45.147Z,21.60
2023-01-27T09:36:52.616Z,22.63
2023-01-27T09:42:18.518Z,21.40
2023-01-27T09:47:43.735Z,20.80
2023-01-27T09:53:23.655Z,21.30
2023-01-27T09:58:38.804Z,20.17
2023-01-27T10:04:13.781Z,20.20
2023-01-27T10:10:04.207Z,19.40
2023-01-27T10:15:20.194Z,22.87
2023-01-27T10:20:30.751Z,21.77
2023-01-27T10:25:47.821Z,21.83
2023-01-27T10:30:57.100Z,19.10
2023-01-27T10:36:04.973Z,18.57
2023-01-27T10:41:20.045Z,21.37
2023-01-27T10:46:30.617Z,18.53
2023-01-27T10:51:38.900Z,16.83
2023-01-27T10:56:47.101Z,14.10
2023-01-27T11:01:54.659Z,16.53
2023-01-27T11:06:59.038Z,15.30
2023-01-27T11:12:06.988Z,15.67
2023-01-27T11:17:18.678Z,14.90
2023-01-27T11:22:25.511Z,13.47
2023-01-27T11:27:40.643Z,12.87
2023-01-27T11:32:53.759Z,13.43
2023-01-27T11:38:09.802Z,13.80
2023-01-27T11:43:21.238Z,13.80
2023-01-27T11:48:24.536Z,11.93
2023-01-27T11:53:32.216Z,13.70
2023-01-27T11:58:44.425Z,13.17
2023-01-27T12:03:54.663Z,14.47
2023-01-27T12:08:57.797Z,14.77
2023-01-27T12:14:03.621Z,13.47
2023-01-27T12:19:22.964Z,14.23
2023-01-27T12:24:30.401Z,13.13
2023-01-27T12:29:41.841Z,12.30
2023-01-27T12:34:48.029Z,12.63
2023-01-27T12:39:57.089Z,12.97
2023-01-27T12:45:02.205Z,11.47
2023-01-27T12:50:22.297Z,11.23
2023-01-27T12:55:30.415Z,11.30
2023-01-27T13:00:35.874Z,11.13
2023-01-27T13:05:42.139Z,11.60
2023-01-27T13:10:52.525Z,10.83
2023-01-27T13:16:05.678Z,10.53
2023-01-27T13:21:16.134Z,12.10
2023-01-27T13:26:22.954Z,12.73
2023-01-27T13:31:41.816Z,10.97
2023-01-27T13:36:49.827Z,12.20
2023-01-27T13:41:58.158Z,12.20
2023-01-27T13:47:06.695Z,12.27
2023-01-27T13:52:12.258Z,11.67
2023-01-27T13:57:45.079Z,12.60
2023-01-27T14:03:25.033Z,11.20
2023-01-27T14:08:50.057Z,11.13
2023-01-27T14:14:04.238Z,11.90
2023-01-27T14:19:25.228Z,10.63
2023-01-27T14:24:40.054Z,11.70
2023-01-27T14:29:48.787Z,11.97
2023-01-27T14:35:07.720Z,12.00
2023-01-27T14:40:19.228Z,12.37
2023-01-27T14:45:25.801Z,11.13
2023-01-27T14:50:38.600Z,11.83
2023-01-27T14:55:49.767Z,13.27
2023-01-27T15:01:04.293Z,12.13
2023-01-27T15:06:16.240Z,12.57
2023-01-27T15:11:32.866Z,12.30
2023-01-27T15:16:56.189Z,11.50
2023-01-27T15:22:30.971Z,11.80
2023-01-27T15:27:35.448Z,10.80
2023-01-27T15:32:39.371Z,10.50
2023-01-27T15:38:00.585Z,10.77
2023-01-27T15:43:06.148Z,11.13
2023-01-27T15:48:15.340Z,11.63
2023-01-27T15:53:29.727Z,12.73
2023-01-27T15:58:35.894Z,11.70
2023-01-27T16:03:43.905Z,11.27
2023-01-27T16:08:52.198Z,15.87
2023-01-27T16:14:34.444Z,13.27
2023-01-27T16:19:44.363Z,13.20
2023-01-27T16:24:56.233Z,12.20
2023-01-27T16:30:07.059Z,13.10
2023-01-27T16:35:20.278Z,11.90
2023-01-27T16:40:26.083Z,12.00
2023-01-27T16:45:39.758Z,12.57
2023-01-27T16:50:45.073Z,11.93
2023-01-27T16:56:01.523Z,12.73
2023-01-27T17:01:05.222Z,10.83
2023-01-27T17:06:15.289Z,11.13
2023-01-27T17:11:25.218Z,11.37
2023-01-27T17:16:32.772Z,10.73
2023-01-27T17:21:39.012Z,11.67
2023-01-27T17:26:46.318Z,11.30
2023-01-27T17:31:50.567Z,11.67
2023-01-27T17:37:14.790Z,11.17
2023-01-27T17:42:21.623Z,11.63
2023-01-27T17:47:25.275Z,11.10
2023-01-27T17:52:30.301Z,12.33
2023-01-27T17:57:36.262Z,12.43
2023-01-27T18:02:44.951Z,12.10
2023-01-27T18:07:48.360Z,10.07
2023-01-27T18:12:52.982Z,11.33
2023-01-27T18:17:59.797Z,9.80
2023-01-27T18:23:05.940Z,10.40
2023-01-27T18:28:10.515Z,10.17
2023-01-27T18:33:14.489Z,10.53
2023-01-27T18:38:23.768Z,10.37
2023-01-27T18:43:28.401Z,9.80
2023-01-27T18:48:33.427Z,10.17
2023-01-27T18:53:36.598Z,10.10
2023-01-27T18:58:41.088Z,10.47
2023-01-27T19:03:44.243Z,9.63
2023-01-27T19:08:48.932Z,9.70
2023-01-27T19:13:53.406Z,9.07
2023-01-27T19:18:56.535Z,9.80
2023-01-27T19:23:59.752Z,9.07
2023-01-27T19:29:04.633Z,9.10
2023-01-27T19:34:11.387Z,9.60
2023-01-27T19:39:17.084Z,10.57
2023-01-27T19:44:21.692Z,9.73
2023-01-27T19:49:24.873Z,9.93
2023-01-27T19:54:30.209Z,8.90
2023-01-27T19:59:35.003Z,9.93
2023-01-27T20:04:38.240Z,10.17
2023-01-27T20:09:41.455Z,9.40
2023-01-27T20:14:46.374Z,8.90
2023-01-27T20:19:49.872Z,9.20
2023-01-27T20:24:53.140Z,9.80
2023-01-27T20:29:57.680Z,9.97
2023-01-27T20:35:00.808Z,10.27
2023-01-27T20:40:04.087Z,9.53
2023-01-27T20:45:09.588Z,10.23
2023-01-27T20:50:13.371Z,9.93
2023-01-27T20:55:19.288Z,9.53
2023-01-27T21:00:24.249Z,9.53
2023-01-27T21:05:27.445Z,10.80
2023-01-27T21:10:30.628Z,10.60
2023-01-27T21:15:35.261Z,10.33
2023-01-27T21:20:38.366Z,10.30
2023-01-27T21:25:41.422Z,11.33
2023-01-27T21:30:46.646Z,12.53
2023-01-27T21:35:55.435Z,11.33
2023-01-27T21:41:05.183Z,12.80
2023-01-27T21:46:09.755Z,12.13
2023-01-27T21:51:12.943Z,13.40
2023-01-27T21:56:16.122Z,14.13
2023-01-27T22:01:20.931Z,13.90
2023-01-27T22:06:24.097Z,13.63
2023-01-27T22:11:27.315Z,14.47
2023-01-27T22:16:31.923Z,12.50
2023-01-27T22:21:35.148Z,15.90
2023-01-27T22:26:38.279Z,15.57
2023-01-27T22:31:42.911Z,15.83
2023-01-27T22:36:49.533Z,12.93
2023-01-27T22:41:52.712Z,14.70
2023-01-27T22:46:57.185Z,14.73
2023-01-27T22:52:00.674Z,12.67
2023-01-27T22:57:04.183Z,14.43
2023-01-27T23:02:08.739Z,14.70
2023-01-27T23:07:11.897Z,13.00
2023-01-27T23:12:15.387Z,14.03
2023-01-27T23:17:19.854Z,12.80
2023-01-27T23:22:22.991Z,14.80
2023-01-27T23:27:26.403Z,14.33
2023-01-27T23:32:30.906Z,15.00
2023-01-27T23:37:34.137Z,13.73
2023-01-27T23:42:37.234Z,14.37
2023-01-27T23:47:41.692Z,14.00
2023-01-27T23:52:44.983Z,13.20
2023-01-27T23:57:48.050Z,14.37
